Time;durP1;ratioP1;P1;durP2;ratioP2;P2;SDS_P1;SDS_P2;PMS_P1;PMS_P2;Temp;Humidity;BMP_temperature;BMP_pressure;BME280_temperature;BME280_humidity;BME280_pressure;Samples;Min_cycle;Max_cycle;Signal;HPM_P1;HPM_P2
2022/08/15 00:01:01;;;;;;;;;21.00;21.00;;;;;21.44;70.33;99725.81;5075401;27;45392;-70
2022/08/15 00:03:31;;;;;;;;;19.00;19.00;;;;;21.43;70.45;99718.78;5075658;27;45280;-69
2022/08/15 00:06:03;;;;;;;;;18.25;18.25;;;;;21.47;70.56;99722.84;5075279;27;45600;-71
2022/08/15 00:08:31;;;;;;;;;20.25;20.25;;;;;21.47;70.20;99712.13;5075295;27;46796;-68
2022/08/15 00:11:01;;;;;;;;;19.50;19.50;;;;;21.49;70.09;99710.16;5075588;27;45392;-68
2022/08/15 00:13:28;;;;;;;;;22.50;22.50;;;;;21.53;70.03;99711.53;5074924;27;45345;-72
2022/08/15 00:15:55;;;;;;;;;18.75;18.75;;;;;21.56;69.89;99708.53;5075552;27;45549;-70
2022/08/15 00:18:24;;;;;;;;;23.00;23.00;;;;;21.59;69.63;99712.75;5075562;27;46214;-72
2022/08/15 00:20:50;;;;;;;;;20.25;20.25;;;;;21.62;69.21;99704.41;5073933;27;45420;-72
2022/08/15 00:23:19;;;;;;;;;21.00;21.00;;;;;21.59;69.54;99699.38;5075566;27;45334;-70
2022/08/15 00:25:47;;;;;;;;;25.25;25.25;;;;;21.56;69.84;99705.03;5075072;27;45491;-70
2022/08/15 00:28:13;;;;;;;;;20.25;20.00;;;;;21.55;69.75;99703.34;5075148;27;45781;-71
2022/08/15 00:30:40;;;;;;;;;23.50;23.50;;;;;21.54;69.52;99704.34;5075157;27;45402;-73
2022/08/15 00:33:06;;;;;;;;;25.75;25.75;;;;;21.53;69.49;99705.34;5075328;27;45403;-71
2022/08/15 00:35:36;;;;;;;;;32.00;29.25;;;;;21.47;69.54;99700.63;5075811;27;45566;-70
2022/08/15 00:38:22;;;;;;;;;24.00;24.00;;;;;21.48;69.66;99699.63;5074874;27;47255;-71
2022/08/15 00:43:52;;;;;;;;;27.00;26.50;;;;;21.40;69.51;99695.88;5074925;27;45380;-70
2022/08/15 00:46:19;;;;;;;;;22.75;22.00;;;;;21.36;69.68;99694.50;5074970;27;45474;-72
2022/08/15 00:48:44;;;;;;;;;21.75;21.75;;;;;21.21;69.60;99680.81;5074733;28;46275;-71
2022/08/15 00:51:13;;;;;;;;;23.50;23.50;;;;;21.28;69.73;99703.28;5073186;27;45453;-71
2022/08/15 00:53:41;;;;;;;;;23.50;21.75;;;;;21.24;69.45;99695.75;5074857;27;45207;-70
2022/08/15 00:56:10;;;;;;;;;20.00;20.00;;;;;21.21;69.67;99699.53;5075257;28;45446;-68
2022/08/15 00:58:35;;;;;;;;;21.75;21.75;;;;;21.19;69.20;99692.66;5074964;27;46649;-71
2022/08/15 01:01:02;;;;;;;;;24.25;24.25;;;;;21.15;68.96;99698.31;5074552;27;45444;-72
2022/08/15 01:03:32;;;;;;;;;22.50;22.50;;;;;21.13;69.54;99697.63;5074152;27;45472;-69
2022/08/15 01:06:01;;;;;;;;;22.50;22.50;;;;;21.11;69.44;99693.44;5074787;27;45454;-68
2022/08/15 01:08:33;;;;;;;;;21.25;21.25;;;;;21.09;69.35;99693.56;5074240;27;45434;-71
2022/08/15 01:11:02;;;;;;;;;22.75;22.75;;;;;21.07;69.59;99692.06;5072979;27;45344;-72
2022/08/15 01:13:29;;;;;;;;;22.50;22.50;;;;;21.08;69.19;99699.91;5074002;27;45258;-71
2022/08/15 01:15:55;;;;;;;;;22.75;22.50;;;;;21.04;69.26;99685.16;5075045;27;45228;-72
2022/08/15 01:18:20;;;;;;;;;22.00;22.00;;;;;21.01;68.97;99694.34;5073084;28;47283;-69
2022/08/15 01:20:48;;;;;;;;;21.75;21.75;;;;;20.99;68.82;99688.31;5073104;28;45288;-73
2022/08/15 01:23:45;;;;;;;;;23.00;23.00;;;;;20.95;68.45;99692.28;5073091;28;45356;-69
2022/08/15 01:26:13;;;;;;;;;23.25;23.25;;;;;20.90;68.00;99693.72;5074671;28;45297;-69
2022/08/15 01:28:42;;;;;;;;;21.00;21.00;;;;;20.89;68.40;99695.56;5074472;27;46117;-71
2022/08/15 01:31:19;;;;;;;;;21.00;21.00;;;;;20.88;68.02;99691.19;5074573;27;45350;-71
2022/08/15 01:33:48;;;;;;;;;19.50;19.50;;;;;20.86;68.12;99695.84;5074291;27;45343;-70
2022/08/15 01:36:16;;;;;;;;;18.50;18.50;;;;;20.84;67.75;99695.16;5074578;28;45336;-72
2022/08/15 01:38:51;;;;;;;;;22.25;21.75;;;;;20.83;67.67;99698.81;5074063;27;46246;-73
2022/08/15 01:41:43;;;;;;;;;23.75;23.75;;;;;20.80;68.03;99696.47;5074159;27;45460;-69
2022/08/15 01:44:17;;;;;;;;;19.75;19.75;;;;;20.77;67.58;99694.88;5072867;27;45334;-71
2022/08/15 01:46:50;;;;;;;;;24.75;24.50;;;;;20.77;67.89;99696.72;5074512;27;45263;-73
2022/08/15 01:49:23;;;;;;;;;19.50;19.50;;;;;20.76;67.57;99687.84;5074183;27;46173;-71
2022/08/15 01:51:52;;;;;;;;;19.50;19.50;;;;;20.73;67.41;99683.66;5074193;27;45360;-70
2022/08/15 01:54:20;;;;;;;;;21.50;21.50;;;;;20.71;68.26;99679.44;5074149;27;45192;-74
2022/08/15 01:56:46;;;;;;;;;21.00;21.00;;;;;20.72;68.04;99679.31;5072857;27;45319;-71
2022/08/15 01:59:19;;;;;;;;;25.00;25.00;;;;;20.70;68.08;99677.75;5074082;27;45489;-68
2022/08/15 02:01:51;;;;;;;;;21.00;20.25;;;;;20.70;68.04;99677.75;5073940;27;45509;-73
2022/08/15 02:04:21;;;;;;;;;21.50;21.50;;;;;20.67;68.06;99672.72;5074021;27;45448;-73
2022/08/15 02:06:47;;;;;;;;;22.75;22.75;;;;;20.68;67.63;99671.72;5073968;27;45329;-70
2022/08/15 02:09:17;;;;;;;;;26.50;26.50;;;;;20.65;68.27;99669.34;5073461;27;46552;-69
2022/08/15 02:11:44;;;;;;;;;25.25;25.25;;;;;20.64;68.11;99673.84;5073542;27;45369;-72
2022/08/15 02:14:11;;;;;;;;;23.00;23.00;;;;;20.65;68.35;99686.22;5072223;28;45368;-70
2022/08/15 02:16:39;;;;;;;;;26.00;26.00;;;;;20.60;68.68;99671.63;5076406;27;45607;-70
2022/08/15 02:19:08;;;;;;;;;17.00;17.00;;;;;20.60;68.84;99676.97;5077172;27;46426;-70
2022/08/15 02:21:34;;;;;;;;;25.50;25.00;;;;;20.56;69.37;99668.41;5077288;27;45413;-69
2022/08/15 02:24:01;;;;;;;;;22.00;22.00;;;;;20.52;69.33;99661.69;5077098;27;45343;-70
2022/08/15 02:26:27;;;;;;;;;27.50;27.00;;;;;20.54;69.94;99665.03;5077320;27;45355;-70
2022/08/15 02:28:52;;;;;;;;;23.00;23.00;;;;;20.51;69.81;99671.53;5076985;27;46652;-69
2022/08/15 02:31:23;;;;;;;;;27.25;26.25;;;;;20.49;70.55;99678.00;5077041;27;45338;-73
2022/08/15 02:33:53;;;;;;;;;26.25;26.25;;;;;20.44;70.83;99671.28;5077117;27;45337;-71
2022/08/15 02:36:19;;;;;;;;;24.00;24.00;;;;;20.38;70.57;99666.53;5076755;27;45452;-72
2022/08/15 02:38:47;;;;;;;;;28.25;28.00;;;;;20.36;70.54;99657.00;5076673;27;46204;-74
2022/08/15 02:41:17;;;;;;;;;28.50;27.75;;;;;20.33;70.53;99665.31;5077062;27;45224;-69
2022/08/15 02:43:44;;;;;;;;;25.25;23.75;;;;;20.31;70.67;99657.44;5077285;27;45259;-70
2022/08/15 02:46:10;;;;;;;;;27.00;27.00;;;;;20.27;70.73;99654.22;5077431;28;45413;-72
2022/08/15 02:48:37;;;;;;;;;25.00;25.00;;;;;20.25;70.79;99661.56;5076751;28;45439;-73
2022/08/15 02:51:07;;;;;;;;;25.00;25.00;;;;;20.24;70.50;99653.66;5076825;27;45213;-69
2022/08/15 02:53:32;;;;;;;;;24.75;24.75;;;;;20.21;70.21;99654.81;5076805;27;45343;-69
2022/08/15 02:55:59;;;;;;;;;26.00;26.00;;;;;20.21;70.51;99657.50;5076920;27;45352;-69
2022/08/15 02:58:24;;;;;;;;;25.00;25.00;;;;;20.19;70.22;99656.81;5076651;27;46292;-71
2022/08/15 03:00:49;;;;;;;;;27.00;27.00;;;;;20.18;70.36;99648.91;5076722;27;45338;-70
2022/08/15 03:03:15;;;;;;;;;24.75;24.00;;;;;20.15;70.23;99647.41;5076741;27;45239;-73
2022/08/15 03:05:44;;;;;;;;;21.50;21.25;;;;;20.10;70.80;99645.16;5077121;27;45629;-73
2022/08/15 03:08:09;;;;;;;;;24.00;24.00;;;;;20.15;70.45;99650.06;5076676;27;45697;-70
2022/08/15 03:10:36;;;;;;;;;26.50;26.50;;;;;20.11;70.42;99646.84;5076421;27;45332;-76
2022/08/15 03:13:05;;;;;;;;;23.25;23.25;;;;;20.14;70.16;99656.38;5076497;28;45572;-71
2022/08/15 03:15:43;;;;;;;;;24.25;23.50;;;;;20.13;70.39;99647.53;5076508;27;45484;-72
2022/08/15 03:18:10;;;;;;;;;25.75;25.75;;;;;20.11;70.34;99638.84;5074890;27;47385;-74
2022/08/15 03:20:36;;;;;;;;;25.75;25.75;;;;;20.15;70.81;99642.06;5074838;28;45303;-68
2022/08/15 03:23:06;;;;;;;;;25.25;25.25;;;;;20.14;71.12;99643.88;5076410;27;45445;-73
2022/08/15 03:25:32;;;;;;;;;23.75;23.75;;;;;20.13;71.22;99639.53;5076309;27;45614;-70
2022/08/15 03:27:58;;;;;;;;;25.50;25.50;;;;;20.12;71.16;99642.31;5075886;27;46285;-70
2022/08/15 03:30:23;;;;;;;;;25.50;25.50;;;;;20.08;71.66;99635.59;5076099;27;45290;-72
2022/08/15 03:32:52;;;;;;;;;27.25;27.25;;;;;20.05;71.27;99631.41;5076052;28;45213;-71
2022/08/15 03:35:19;;;;;;;;;27.25;27.25;;;;;20.09;71.68;99639.94;5076354;27;45263;-71
2022/08/15 03:37:45;;;;;;;;;29.00;28.50;;;;;20.05;71.53;99636.75;5076251;27;45606;-69
2022/08/15 03:40:11;;;;;;;;;22.75;22.75;;;;;20.04;71.82;99637.75;5076007;27;45415;-69
2022/08/15 03:42:37;;;;;;;;;26.25;26.25;;;;;20.07;71.98;99639.25;5076337;27;45261;-70
2022/08/15 03:45:11;;;;;;;;;24.00;24.00;;;;;20.07;72.48;99640.13;5076360;27;45175;-71
2022/08/15 03:47:37;;;;;;;;;24.50;24.50;;;;;20.04;72.40;99640.41;5075852;28;45527;-68
2022/08/15 03:50:05;;;;;;;;;26.50;25.75;;;;;20.04;71.83;99637.75;5075779;28;45257;-70
2022/08/15 03:52:32;;;;;;;;;26.75;26.75;;;;;20.04;72.16;99632.41;5076058;27;45242;-70
2022/08/15 03:55:00;;;;;;;;;26.50;26.50;;;;;19.98;72.75;99623.13;5075924;27;45487;-69
2022/08/15 03:57:26;;;;;;;;;30.00;29.50;;;;;20.02;72.20;99636.19;5074389;27;45982;-69
2022/08/15 03:59:52;;;;;;;;;29.25;29.25;;;;;20.03;72.09;99632.53;5075952;27;45295;-70
2022/08/15 04:02:17;;;;;;;;;29.25;29.00;;;;;20.00;71.89;99623.84;5076211;27;45430;-69
2022/08/15 04:04:43;;;;;;;;;26.75;26.75;;;;;20.00;71.73;99625.66;5076198;27;45183;-69
2022/08/15 04:07:08;;;;;;;;;21.75;21.75;;;;;20.02;72.00;99630.84;5075684;27;45283;-69
2022/08/15 04:09:34;;;;;;;;;25.75;25.75;;;;;20.03;71.59;99627.19;5075943;27;45350;-72
2022/08/15 04:11:59;;;;;;;;;30.00;29.25;;;;;19.95;71.48;99607.41;5074531;28;45650;-69
2022/08/15 04:14:25;;;;;;;;;23.25;23.25;;;;;20.00;71.24;99615.81;5075899;27;45702;-68
2022/08/15 04:16:50;;;;;;;;;23.25;23.25;;;;;20.00;70.74;99613.16;5075228;27;45586;-69
2022/08/15 04:19:15;;;;;;;;;23.25;23.25;;;;;20.00;70.76;99615.00;5075381;27;45426;-70
2022/08/15 04:21:42;;;;;;;;;27.25;27.00;;;;;20.01;71.01;99608.66;5075551;27;45211;-69
2022/08/15 04:24:08;;;;;;;;;26.50;26.50;;;;;19.98;71.10;99600.97;5075627;27;45425;-72
2022/08/15 04:26:34;;;;;;;;;23.25;23.25;;;;;19.99;70.78;99608.81;5074976;27;46059;-72
2022/08/15 04:29:00;;;;;;;;;26.00;25.00;;;;;19.99;71.03;99611.47;5075099;28;45384;-71
2022/08/15 04:31:25;;;;;;;;;26.75;26.75;;;;;19.96;71.13;99617.09;5075375;27;45347;-72
2022/08/15 04:33:51;;;;;;;;;25.00;25.00;;;;;19.98;71.08;99625.81;5075152;28;45334;-69
2022/08/15 04:36:18;;;;;;;;;24.50;24.50;;;;;19.93;70.69;99614.72;5075199;27;45548;-70
2022/08/15 04:38:45;;;;;;;;;26.00;26.00;;;;;19.86;70.56;99608.25;5074339;27;45370;-72
2022/08/15 04:41:11;;;;;;;;;21.75;21.75;;;;;19.94;70.97;99615.59;5074997;27;45244;-70
2022/08/15 04:43:39;;;;;;;;;21.75;21.75;;;;;19.89;70.55;99615.16;5075282;27;45281;-72
2022/08/15 04:46:05;;;;;;;;;22.50;22.50;;;;;19.90;70.70;99617.69;5073240;28;46857;-72
2022/08/15 04:48:31;;;;;;;;;26.25;26.25;;;;;19.81;70.55;99613.19;5074766;27;45574;-70
2022/08/15 04:50:58;;;;;;;;;23.50;23.50;;;;;19.84;71.03;99619.09;5075078;27;45437;-70
2022/08/15 04:53:27;;;;;;;;;27.00;27.00;;;;;19.84;70.61;99618.25;5075001;28;45266;-71
2022/08/15 04:55:55;;;;;;;;;23.00;23.00;;;;;19.82;71.04;99622.88;5075084;27;45442;-71
2022/08/15 04:58:21;;;;;;;;;26.25;26.25;;;;;19.81;71.18;99613.19;5074766;27;45427;-70
2022/08/15 05:00:52;;;;;;;;;23.00;23.00;;;;;19.82;70.80;99609.53;5074979;27;45345;-70
2022/08/15 05:03:19;;;;;;;;;22.75;22.75;;;;;19.83;70.80;99605.88;5075218;27;45323;-73
2022/08/15 05:05:57;;;;;;;;;26.25;25.25;;;;;19.84;71.15;99604.91;5074462;27;46390;-70
2022/08/15 05:08:27;;;;;;;;;26.75;26.75;;;;;19.86;71.34;99600.25;5074622;28;45297;-69
2022/08/15 05:11:00;;;;;;;;;25.25;25.25;;;;;19.86;70.69;99602.94;5074865;27;45377;-68
2022/08/15 05:13:29;;;;;;;;;39.00;34.50;;;;;19.84;71.28;99586.22;5074623;27;45327;-70
2022/08/15 05:15:54;;;;;;;;;23.25;23.25;;;;;19.85;71.25;99591.44;5074587;28;45457;-70
2022/08/15 05:18:22;;;;;;;;;25.00;25.00;;;;;19.86;70.73;99584.25;5074590;27;45427;-70
2022/08/15 05:20:47;;;;;;;;;26.50;26.50;;;;;19.84;71.02;99579.06;5075114;28;45287;-69
2022/08/15 05:23:16;;;;;;;;;24.50;24.25;;;;;19.88;71.07;99590.28;5073480;28;45311;-71
2022/08/15 05:25:44;;;;;;;;;28.50;27.75;;;;;19.89;71.57;99591.97;5074365;27;45323;-73
2022/08/15 05:28:12;;;;;;;;;24.75;24.75;;;;;19.87;71.33;99591.25;5074430;27;45473;-71
2022/08/15 05:30:38;;;;;;;;;23.75;23.75;;;;;19.88;71.11;99592.13;5074186;27;45407;-70
2022/08/15 05:33:11;;;;;;;;;21.00;21.00;;;;;19.86;71.33;99592.25;5074437;27;45539;-71
2022/08/15 05:35:41;;;;;;;;;24.50;24.50;;;;;19.83;71.66;99592.53;5074261;27;45395;-72
2022/08/15 05:38:14;;;;;;;;;26.25;26.25;;;;;19.81;71.50;99581.19;5074301;27;45237;-70
2022/08/15 05:40:49;;;;;;;;;25.75;25.75;;;;;19.84;71.50;99580.88;5074219;27;45264;-73
2022/08/15 05:43:28;;;;;;;;;25.50;25.50;;;;;19.86;71.11;99589.59;5074642;27;45394;-70
2022/08/15 05:46:09;;;;;;;;;23.75;23.75;;;;;19.90;71.70;99588.34;5073920;27;45348;-69
2022/08/15 05:48:37;;;;;;;;;27.25;27.25;;;;;19.90;71.30;99585.66;5074191;27;45251;-70
2022/08/15 05:51:06;;;;;;;;;24.50;24.50;;;;;19.94;71.58;99592.38;5074136;27;45289;-71
2022/08/15 05:54:06;;;;;;;;;21.25;21.25;;;;;19.97;70.89;99594.75;5074290;28;45288;-72
2022/08/15 05:57:01;;;;;;;;;24.00;24.00;;;;;20.00;71.19;99591.81;5061536;27;45764;-71
2022/08/15 05:59:38;;;;;;;;;27.00;26.25;;;;;20.03;70.70;99600.50;5054090;27;45542;-72
2022/08/15 06:02:15;;;;;;;;;27.50;27.50;;;;;20.05;70.72;99595.84;5073942;27;45351;-71
2022/08/15 06:04:45;;;;;;;;;26.25;26.25;;;;;20.06;70.31;99606.41;5072956;28;45395;-68
2022/08/15 06:07:14;;;;;;;;;22.25;22.25;;;;;20.07;70.86;99608.09;5074323;27;46422;-70
2022/08/15 06:09:46;;;;;;;;;24.75;24.25;;;;;20.09;70.73;99600.75;5073839;27;45517;-72
2022/08/15 06:12:26;;;;;;;;;26.00;26.00;;;;;20.11;70.09;99606.78;5073807;27;45223;-71
2022/08/15 06:14:57;;;;;;;;;27.25;27.25;;;;;20.15;70.29;99607.34;5074323;27;45302;-71
2022/08/15 06:17:46;;;;;;;;;27.25;27.25;;;;;20.18;69.65;99609.72;5074091;27;46566;-72
2022/08/15 06:20:17;;;;;;;;;19.75;19.75;;;;;20.24;69.75;99600.28;5073588;27;45315;-71
2022/08/15 06:22:58;;;;;;;;;19.00;19.00;;;;;20.25;69.40;99602.81;5073937;27;45470;-69
2022/08/15 06:25:26;;;;;;;;;22.75;22.75;;;;;20.31;68.60;99600.53;5074205;28;45256;-70
2022/08/15 06:28:25;;;;;;;;;23.50;23.50;;;;;20.34;68.32;99600.22;5074235;27;45315;-73
2022/08/15 06:31:01;;;;;;;;;21.00;21.00;;;;;20.39;68.48;99600.63;5073926;28;45328;-70
2022/08/15 06:33:33;;;;;;;;;22.00;22.00;;;;;20.41;67.89;99596.78;5073778;27;45295;-69
2022/08/15 06:36:31;;;;;;;;;22.25;22.25;;;;;20.48;67.69;99598.88;5073463;27;45351;-69
2022/08/15 06:39:26;;;;;;;;;22.25;22.25;;;;;20.57;67.67;99601.50;5073282;27;45405;-73
2022/08/15 06:42:18;;;;;;;;;19.75;19.75;;;;;20.63;66.78;99599.19;5071076;28;45303;-69
2022/08/15 06:44:48;;;;;;;;;22.00;21.50;;;;;20.69;67.10;99593.25;5069439;28;45531;-70
2022/08/15 06:47:14;;;;;;;;;18.50;18.50;;;;;20.71;66.70;99583.25;5073587;27;45310;-68
2022/08/15 06:49:45;;;;;;;;;17.50;17.50;;;;;20.78;66.93;99583.50;5073134;27;45273;-72
2022/08/15 06:52:16;;;;;;;;;25.00;24.50;;;;;20.85;66.45;99588.09;5073338;27;45353;-72
2022/08/15 06:54:42;;;;;;;;;20.50;20.50;;;;;20.90;66.56;99598.34;5072880;27;45343;-73
2022/08/15 06:58:00;;;;;;;;;21.25;21.25;;;;;20.93;65.87;99594.50;5073396;27;45476;-73
2022/08/15 07:00:38;;;;;;;;;20.50;20.50;;;;;20.95;65.91;99590.69;5064408;27;46591;-72
2022/08/15 07:03:21;;;;;;;;;21.25;21.25;;;;;20.94;66.22;99589.03;5074562;28;45374;-72
2022/08/15 07:05:51;;;;;;;;;22.25;22.25;;;;;21.01;66.27;99589.22;5076476;27;45270;-71
2022/08/15 07:08:29;;;;;;;;;19.00;19.00;;;;;21.07;66.10;99590.47;5076357;27;45600;-70
2022/08/15 07:10:59;;;;;;;;;21.00;21.00;;;;;21.10;65.72;99585.63;5076650;27;45604;-71
2022/08/15 07:13:29;;;;;;;;;20.00;20.00;;;;;21.16;65.61;99586.84;5076246;28;45301;-74
2022/08/15 07:15:58;;;;;;;;;20.00;20.00;;;;;21.23;65.33;99595.94;5076663;27;45357;-72
2022/08/15 07:18:45;;;;;;;;;18.50;18.50;;;;;21.30;65.14;99598.84;5075011;27;45359;-70
2022/08/15 07:21:17;;;;;;;;;18.00;18.00;;;;;21.37;65.06;99594.53;5076119;27;46757;-72
2022/08/15 07:24:21;;;;;;;;;21.25;21.25;;;;;21.43;64.84;99598.41;5074445;28;45526;-73
2022/08/15 07:26:59;;;;;;;;;22.00;22.00;;;;;21.47;64.87;99597.09;5076197;27;45467;-69
2022/08/15 07:29:36;;;;;;;;;19.75;19.00;;;;;21.59;64.64;99608.41;5076657;28;45230;-70
2022/08/15 07:32:13;;;;;;;;;18.50;18.50;;;;;21.65;64.46;99606.94;5075890;27;46369;-70
2022/08/15 07:34:55;;;;;;;;;20.00;20.00;;;;;21.71;64.61;99611.66;5076099;27;45614;-71
2022/08/15 07:37:22;;;;;;;;;21.25;21.25;;;;;21.78;64.15;99602.03;5076343;28;45242;-71
2022/08/15 07:39:58;;;;;;;;;21.75;20.25;;;;;21.91;63.45;99612.28;5076459;27;45672;-69
2022/08/15 07:42:23;;;;;;;;;18.00;18.00;;;;;21.99;63.60;99612.31;5076290;27;46330;-71
2022/08/15 07:44:58;;;;;;;;;19.25;19.25;;;;;22.16;62.84;99607.03;5075701;27;45349;-72
2022/08/15 07:47:27;;;;;;;;;14.50;14.50;;;;;22.32;62.56;99607.13;5076540;28;45337;-72
2022/08/15 07:50:22;;;;;;;;;17.75;17.75;;;;;22.58;61.57;99611.59;5076152;27;45234;-69
2022/08/15 07:52:56;;;;;;;;;13.75;13.75;;;;;22.83;61.04;99611.63;5075786;27;45331;-70
2022/08/15 07:55:22;;;;;;;;;16.00;16.00;;;;;22.95;59.76;99608.63;5074242;27;45431;-70
2022/08/15 07:58:07;;;;;;;;;16.25;16.25;;;;;23.13;59.28;99608.47;5076080;27;45348;-71
2022/08/15 08:00:35;;;;;;;;;17.75;17.75;;;;;23.17;59.57;99602.59;5076412;27;45244;-72
2022/08/15 08:03:09;;;;;;;;;16.25;16.25;;;;;23.26;59.21;99605.31;5075544;28;46140;-72
2022/08/15 08:05:50;;;;;;;;;15.75;15.75;;;;;23.27;58.35;99598.94;5075593;28;45248;-73
2022/08/15 08:08:17;;;;;;;;;17.25;17.25;;;;;23.29;58.57;99611.19;5075823;27;45284;-69
2022/08/15 08:11:12;;;;;;;;;14.50;14.50;;;;;23.31;58.19;99613.69;5075745;27;45339;-69
2022/08/15 08:14:06;;;;;;;;;15.00;15.00;;;;;23.26;57.93;99614.19;5073429;27;45218;-73
2022/08/15 08:16:48;;;;;;;;;9.75;9.75;;;;;23.28;58.01;99620.25;5075267;28;45421;-73
2022/08/15 08:19:39;;;;;;;;;15.25;15.00;;;;;23.23;57.66;99605.59;5075228;27;45414;-73
2022/08/15 08:22:18;;;;;;;;;11.75;11.75;;;;;23.20;58.46;99602.25;5074123;28;45523;-70
2022/08/15 08:25:13;;;;;;;;;13.75;13.75;;;;;23.33;57.95;99611.69;5075143;27;46477;-72
2022/08/15 08:28:00;;;;;;;;;15.50;14.75;;;;;23.42;58.14;99594.59;5075314;27;45343;-68
2022/08/15 08:30:35;;;;;;;;;15.00;15.00;;;;;23.42;57.64;99613.38;5075551;27;45343;-71
2022/08/15 08:33:29;;;;;;;;;13.25;12.25;;;;;23.47;57.87;99604.78;5075433;27;45464;-68
2022/08/15 08:36:06;;;;;;;;;9.25;9.25;;;;;23.57;57.51;99608.13;5066865;27;46692;-72
2022/08/15 08:38:48;;;;;;;;;12.75;12.75;;;;;23.78;57.83;99609.41;5075085;27;45414;-70
2022/08/15 08:41:36;;;;;;;;;15.75;14.75;;;;;23.98;56.74;99607.19;5075084;27;45339;-70
2022/08/15 08:44:27;;;;;;;;;16.00;16.00;;;;;24.21;56.83;99610.00;5074982;28;45433;-70
2022/08/15 08:47:05;;;;;;;;;15.75;15.75;;;;;24.54;56.04;99611.69;5073182;27;47062;-71
2022/08/15 08:49:33;;;;;;;;;12.50;12.50;;;;;24.75;55.37;99608.38;5075202;27;45377;-69
2022/08/15 08:52:10;;;;;;;;;12.50;12.50;;;;;24.97;55.16;99610.41;5075396;27;45393;-70
2022/08/15 08:54:44;;;;;;;;;12.00;12.00;;;;;25.13;54.40;99599.53;5075323;27;45225;-72
2022/08/15 08:57:16;;;;;;;;;11.25;11.25;;;;;25.16;53.85;99593.78;5074620;28;45410;-69
2022/08/15 08:59:53;;;;;;;;;12.75;12.75;;;;;25.19;54.26;99596.09;5074800;27;45461;-71
2022/08/15 09:02:34;;;;;;;;;25.25;25.25;;;;;25.15;53.13;99594.81;5074769;27;45148;-68
2022/08/15 09:05:34;;;;;;;;;11.75;11.75;;;;;25.13;53.39;99596.00;5077473;27;45497;-72
2022/08/15 09:08:08;;;;;;;;;10.25;10.25;;;;;25.11;52.68;99596.19;5076397;27;46136;-73
2022/08/15 09:10:35;;;;;;;;;10.00;10.00;;;;;25.11;53.34;99598.06;5073751;27;45330;-72
2022/08/15 09:15:51;;;;;;;;;11.25;11.25;;;;;25.02;52.90;99599.97;5074952;27;45290;-72
2022/08/15 09:18:31;;;;;;;;;8.25;8.25;;;;;24.97;52.85;99613.97;5074603;27;45453;-72
2022/08/15 09:20:58;;;;;;;;;13.00;13.00;;;;;25.05;53.21;99605.81;5074620;27;45486;-73
2022/08/15 09:23:24;;;;;;;;;14.50;14.50;;;;;25.24;53.51;99611.72;5074158;27;45346;-73
2022/08/15 09:26:17;;;;;;;;;11.50;11.50;;;;;25.47;53.22;99610.88;5074391;27;45497;-72
2022/08/15 09:28:48;;;;;;;;;13.75;13.75;;;;;25.68;52.83;99604.78;5072620;28;46453;-72
2022/08/15 09:31:30;;;;;;;;;13.50;13.00;;;;;25.66;52.22;99610.34;5074490;27;45260;-73
2022/08/15 09:34:01;;;;;;;;;8.75;8.75;;;;;25.54;52.89;99606.44;5074163;27;45381;-71
2022/08/15 09:36:45;;;;;;;;;12.25;12.25;;;;;25.49;52.49;99607.00;5074328;28;45182;-72
2022/08/15 09:39:27;;;;;;;;;11.00;11.00;;;;;25.48;52.28;99605.31;5074056;27;45493;-72
2022/08/15 09:42:10;;;;;;;;;9.25;9.25;;;;;25.40;52.63;99613.41;5074262;27;45376;-74
2022/08/15 09:44:44;;;;;;;;;8.25;8.25;;;;;25.33;52.71;99612.47;5074316;27;45325;-72
2022/08/15 09:47:28;;;;;;;;;6.00;6.00;;;;;25.25;53.08;99610.72;5074667;27;45443;-74
2022/08/15 09:50:18;;;;;;;;;7.00;7.00;;;;;25.27;53.06;99613.19;5074417;27;45656;-72
2022/08/15 09:53:14;;;;;;;;;5.00;5.00;;;;;25.34;53.34;99622.22;5073225;27;45512;-70
2022/08/15 09:55:44;;;;;;;;;8.50;8.50;;;;;25.55;53.09;99623.44;5074498;27;45845;-73
2022/08/15 09:58:21;;;;;;;;;5.00;5.00;;;;;25.93;52.98;99629.56;5074375;27;45622;-72
2022/08/15 10:01:08;;;;;;;;;4.25;4.25;;;;;26.36;52.10;99623.53;5074509;27;45386;-73
2022/08/15 10:03:45;;;;;;;;;6.75;6.75;;;;;26.74;51.74;99619.00;5074521;27;45305;-73
2022/08/15 10:06:14;;;;;;;;;7.00;6.00;;;;;26.81;50.55;99618.00;5074074;28;45259;-70
2022/08/15 10:08:54;;;;;;;;;5.50;5.50;;;;;26.82;50.78;99619.69;5073828;28;45535;-69
2022/08/15 10:11:51;;;;;;;;;6.50;6.50;;;;;26.81;50.82;99617.19;5073809;27;46301;-72
2022/08/15 10:14:20;;;;;;;;;3.75;3.75;;;;;26.85;50.33;99615.81;5073662;27;45341;-70
2022/08/15 10:16:52;;;;;;;;;2.25;2.25;;;;;26.77;50.60;99619.44;5074080;27;45345;-72
2022/08/15 10:19:37;;;;;;;;;7.00;7.00;;;;;26.62;50.38;99615.94;5074430;27;45357;-72
2022/08/15 10:22:22;;;;;;;;;5.00;5.00;;;;;26.49;50.47;99620.16;5074109;27;46210;-73
2022/08/15 10:25:22;;;;;;;;;5.50;5.50;;;;;26.46;50.34;99625.94;5073772;27;45444;-72
2022/08/15 10:28:19;;;;;;;;;6.75;6.75;;;;;26.33;50.47;99617.69;5073973;28;45291;-70
2022/08/15 10:31:12;;;;;;;;;7.00;7.00;;;;;26.25;50.79;99624.88;5073851;27;45341;-74
2022/08/15 10:33:53;;;;;;;;;6.00;6.00;;;;;26.14;51.41;99617.22;5073273;28;45626;-73
2022/08/15 10:36:38;;;;;;;;;6.00;6.00;;;;;26.01;51.68;99628.66;5074050;28;45217;-73
2022/08/15 10:39:12;;;;;;;;;6.00;6.00;;;;;25.88;51.72;99628.47;5077175;27;45395;-74
2022/08/15 10:41:56;;;;;;;;;6.00;6.00;;;;;25.72;52.22;99626.78;5076202;27;45495;-69
2022/08/15 10:44:36;;;;;;;;;5.50;5.50;;;;;25.49;52.31;99628.53;5077495;27;45886;-73
2022/08/15 10:47:17;;;;;;;;;5.50;5.50;;;;;25.27;53.00;99629.34;5075972;28;45969;-74
2022/08/15 10:50:19;;;;;;;;;7.25;7.25;;;;;25.14;53.33;99633.50;5077742;27;45436;-73
2022/08/15 10:52:47;;;;;;;;;8.50;8.50;;;;;25.03;53.54;99623.16;5076582;27;45604;-73
2022/08/15 10:55:18;;;;;;;;;8.75;8.75;;;;;24.97;53.04;99623.88;5077303;27;46414;-72
2022/08/15 10:57:51;;;;;;;;;9.00;9.00;;;;;24.94;53.63;99623.22;5076963;27;45231;-71
2022/08/15 11:00:37;;;;;;;;;5.50;5.50;;;;;25.05;53.39;99623.81;5077339;27;45300;-71
2022/08/15 11:03:07;;;;;;;;;9.00;9.00;;;;;25.04;53.72;99625.69;5077502;27;45359;-70
2022/08/15 11:05:33;;;;;;;;;9.50;8.00;;;;;24.98;53.68;99610.25;5077036;27;45560;-72
2022/08/15 11:07:58;;;;;;;;;7.25;7.25;;;;;24.91;53.37;99620.88;5077053;27;45499;-73
2022/08/15 11:10:30;;;;;;;;;9.00;9.00;;;;;24.84;53.95;99611.84;5077095;27;45357;-70
2022/08/15 11:12:59;;;;;;;;;11.50;11.50;;;;;24.83;53.98;99617.41;5076985;27;45651;-71
2022/08/15 11:15:30;;;;;;;;;7.25;7.25;;;;;24.76;54.04;99611.91;5076939;27;45365;-72
2022/08/15 11:18:04;;;;;;;;;14.00;14.00;;;;;24.72;54.28;99607.88;5076469;27;45224;-69
2022/08/15 11:20:40;;;;;;;;;9.00;9.00;;;;;24.69;54.55;99609.06;5076310;27;45212;-73
2022/08/15 11:23:06;;;;;;;;;10.50;10.50;;;;;24.64;54.44;99614.97;5075091;27;45201;-70
2022/08/15 11:25:37;;;;;;;;;9.75;9.75;;;;;24.63;55.13;99620.53;5074443;27;46355;-71
2022/08/15 11:28:21;;;;;;;;;7.75;7.75;;;;;24.56;54.93;99617.72;5076332;27;45229;-70
2022/08/15 11:30:47;;;;;;;;;16.75;16.75;;;;;24.46;56.36;99628.69;5075791;27;45314;-72
2022/08/15 11:33:22;;;;;;;;;17.25;17.25;;;;;24.42;56.92;99631.91;5076213;27;45244;-71
2022/08/15 11:35:50;;;;;;;;;24.50;24.50;;;;;24.35;57.88;99631.75;5075780;27;46529;-72
2022/08/15 11:38:16;;;;;;;;;9.75;9.75;;;;;24.27;56.43;99629.94;5075619;27;45276;-74
2022/08/15 11:40:49;;;;;;;;;11.00;11.00;;;;;24.21;57.45;99636.00;5075924;28;45235;-73
2022/08/15 11:43:17;;;;;;;;;9.25;9.25;;;;;24.14;58.59;99637.72;5076124;27;45434;-69
2022/08/15 11:45:48;;;;;;;;;10.00;10.00;;;;;24.05;58.28;99629.69;5075650;27;45438;-70
2022/08/15 11:48:22;;;;;;;;;19.25;19.25;;;;;24.10;59.74;99639.06;5076113;27;45223;-70
2022/08/15 11:51:01;;;;;;;;;9.25;9.25;;;;;24.11;59.32;99628.16;5076216;27;45465;-69
2022/08/15 11:53:32;;;;;;;;;17.50;17.50;;;;;24.11;59.52;99640.75;5074711;27;45485;-70